Time;durP1;ratioP1;P1;durP2;ratioP2;P2;SDS_P1;SDS_P2;PMS_P1;PMS_P2;Temp;Humidity;BMP_temperature;BMP_pressure;BME280_temperature;BME280_humidity;BME280_pressure;Samples;Min_cycle;Max_cycle;Signal;HPM_P1;HPM_P2
2023/12/07 00:01:23;;;;;;;16.95;10.88;;;7.90;60.50;;;;;;5022326;28;20065;-44
2023/12/07 00:03:50;;;;;;;17.75;10.20;;;7.90;60.50;;;;;;5014849;28;20052;-44
2023/12/07 00:06:18;;;;;;;16.35;10.95;;;7.90;60.50;;;;;;5020312;28;20042;-43
2023/12/07 00:08:45;;;;;;;18.55;10.25;;;7.90;60.40;;;;;;5017958;28;20060;-45
2023/12/07 00:11:12;;;;;;;17.13;10.48;;;7.90;60.50;;;;;;5019542;28;20050;-46
2023/12/07 00:13:39;;;;;;;17.90;10.60;;;7.90;60.50;;;;;;5021277;28;20050;-42
2023/12/07 00:16:07;;;;;;;16.83;10.27;;;8.00;60.60;;;;;;5019222;28;20059;-40
2023/12/07 00:18:34;;;;;;;13.93;9.80;;;8.00;60.60;;;;;;5021461;28;20064;-48
2023/12/07 00:21:01;;;;;;;18.35;10.43;;;8.00;60.40;;;;;;5017266;28;20049;-44
2023/12/07 00:23:30;;;;;;;16.63;10.60;;;8.00;60.30;;;;;;5022582;28;20050;-45
2023/12/07 00:25:58;;;;;;;17.92;10.15;;;8.00;60.10;;;;;;5025406;28;20053;-48
2023/12/07 00:28:25;;;;;;;19.60;11.00;;;8.00;60.00;;;;;;5024333;28;20061;-46
2023/12/07 00:30:52;;;;;;;17.20;10.98;;;7.90;59.90;;;;;;5022944;28;20410;-46
2023/12/07 00:33:19;;;;;;;20.98;10.90;;;7.90;60.00;;;;;;5020285;28;20053;-45
2023/12/07 00:35:48;;;;;;;17.58;10.10;;;7.90;60.00;;;;;;5018106;28;20046;-42
2023/12/07 00:38:15;;;;;;;16.63;10.45;;;7.90;59.90;;;;;;5021876;28;20057;-43
2023/12/07 00:40:43;;;;;;;17.73;10.38;;;7.90;59.90;;;;;;5018618;28;20056;-42
2023/12/07 00:43:10;;;;;;;18.60;10.73;;;7.90;60.00;;;;;;5020256;28;20049;-45
2023/12/07 00:45:37;;;;;;;20.83;11.65;;;7.90;60.10;;;;;;5017839;28;20049;-42
2023/12/07 00:48:05;;;;;;;17.88;11.68;;;7.90;60.20;;;;;;5018843;28;20415;-46
2023/12/07 00:50:33;;;;;;;19.35;11.65;;;7.90;60.30;;;;;;5017916;28;20049;-48
2023/12/07 00:53:00;;;;;;;19.08;11.57;;;7.90;60.40;;;;;;5021443;28;20046;-46
2023/12/07 00:55:27;;;;;;;20.73;11.55;;;7.90;60.40;;;;;;5015721;28;20060;-43
2023/12/07 00:57:55;;;;;;;17.55;11.00;;;7.90;60.30;;;;;;5017644;28;20053;-44
2023/12/07 01:00:23;;;;;;;18.45;11.20;;;7.90;60.30;;;;;;5017488;28;20057;-43
2023/12/07 01:02:51;;;;;;;18.75;10.80;;;7.90;60.30;;;;;;5021329;28;20490;-45
2023/12/07 01:05:18;;;;;;;17.60;11.05;;;7.90;60.30;;;;;;5020892;28;20049;-40
2023/12/07 01:07:45;;;;;;;17.45;10.45;;;7.90;60.30;;;;;;5016145;28;20064;-46
2023/12/07 01:10:13;;;;;;;17.83;10.48;;;7.90;60.40;;;;;;5018464;28;20053;-45
2023/12/07 01:12:40;;;;;;;18.08;11.52;;;7.90;60.40;;;;;;5019679;28;20049;-43
2023/12/07 01:15:09;;;;;;;16.85;11.35;;;7.90;60.50;;;;;;5021983;28;20061;-42
2023/12/07 01:17:37;;;;;;;17.67;11.25;;;7.90;60.50;;;;;;5016213;28;20058;-40
2023/12/07 01:20:07;;;;;;;17.27;10.07;;;7.90;60.60;;;;;;5018167;28;20049;-43
2023/12/07 01:22:34;;;;;;;16.50;10.45;;;7.90;60.60;;;;;;5017011;28;20053;-45
2023/12/07 01:25:01;;;;;;;17.05;10.82;;;7.90;60.50;;;;;;5019586;28;20064;-46
2023/12/07 01:27:29;;;;;;;16.02;10.30;;;7.90;60.50;;;;;;5015544;28;20056;-45
2023/12/07 01:29:56;;;;;;;16.52;10.32;;;7.90;60.40;;;;;;5015010;28;20246;-44
2023/12/07 01:32:25;;;;;;;21.02;10.75;;;8.00;60.40;;;;;;5019353;28;20049;-42
2023/12/07 01:34:52;;;;;;;15.43;10.15;;;8.00;60.30;;;;;;5019606;28;20057;-42
2023/12/07 01:37:19;;;;;;;16.65;10.70;;;8.00;60.20;;;;;;5019913;28;20053;-46
2023/12/07 01:39:47;;;;;;;18.70;11.15;;;8.00;60.10;;;;;;5015630;28;20049;-44
2023/12/07 01:42:14;;;;;;;20.05;11.25;;;8.00;60.00;;;;;;5020094;28;20056;-34
2023/12/07 01:44:41;;;;;;;20.60;12.10;;;8.00;60.00;;;;;;5015299;28;20061;-35
2023/12/07 01:47:10;;;;;;;20.48;11.27;;;8.00;60.00;;;;;;5016132;28;20061;-35
2023/12/07 01:49:39;;;;;;;18.10;10.75;;;8.00;60.00;;;;;;5021890;28;20062;-37
2023/12/07 01:52:08;;;;;;;18.92;11.40;;;8.00;60.00;;;;;;5022939;28;20046;-36
2023/12/07 01:54:35;;;;;;;18.60;10.93;;;8.00;60.00;;;;;;5023016;28;20060;-34
2023/12/07 01:57:03;;;;;;;17.90;10.48;;;8.00;59.90;;;;;;5023249;28;20056;-35
2023/12/07 01:59:30;;;;;;;19.45;9.98;;;8.00;59.90;;;;;;5019551;28;20060;-38
2023/12/07 02:01:58;;;;;;;13.90;8.95;;;8.00;60.00;;;;;;5024563;28;20056;-35
2023/12/07 02:04:25;;;;;;;14.05;9.30;;;8.00;60.10;;;;;;5024105;28;20425;-35
2023/12/07 02:06:57;;;;;;;16.63;9.65;;;8.00;61.00;;;;;;5023372;28;20041;-35
2023/12/07 02:09:25;;;;;;;15.95;9.95;;;8.00;60.30;;;;;;5022417;28;20065;-35
2023/12/07 02:11:52;;;;;;;22.90;11.13;;;8.00;60.40;;;;;;5026873;28;20062;-35
2023/12/07 02:14:22;;;;;;;15.93;9.15;;;8.00;60.40;;;;;;5027416;28;20053;-35
2023/12/07 02:16:54;;;;;;;17.85;10.85;;;8.00;60.40;;;;;;5016911;28;20041;-35
2023/12/07 02:19:46;;;;;;;15.82;9.80;;;8.00;60.30;;;;;;5021272;28;20080;-35
2023/12/07 02:22:18;;;;;;;17.45;10.25;;;8.00;60.20;;;;;;5024663;28;20512;-36
2023/12/07 02:25:02;;;;;;;15.35;10.00;;;8.00;60.10;;;;;;5024766;28;20478;-34
2023/12/07 02:27:41;;;;;;;15.93;10.60;;;8.00;60.00;;;;;;5023372;28;20139;-37
2023/12/07 02:30:10;;;;;;;17.30;10.38;;;8.00;60.00;;;;;;5019300;28;20058;-37
2023/12/07 02:32:38;;;;;;;17.88;10.52;;;8.00;60.00;;;;;;5023134;28;20046;-36
2023/12/07 02:35:06;;;;;;;14.15;9.68;;;8.00;60.10;;;;;;5023825;28;20375;-37
2023/12/07 02:37:37;;;;;;;16.73;10.15;;;8.00;60.10;;;;;;5018969;28;20608;-35
2023/12/07 02:40:10;;;;;;;17.27;9.85;;;8.00;60.20;;;;;;5020573;28;20057;-36
2023/12/07 02:42:40;;;;;;;15.45;9.07;;;8.00;60.20;;;;;;5025932;28;20050;-37
2023/12/07 02:45:09;;;;;;;19.45;10.32;;;8.00;60.20;;;;;;5025678;28;20045;-35
2023/12/07 02:47:37;;;;;;;19.15;9.77;;;8.00;60.20;;;;;;5023481;28;20046;-36
2023/12/07 02:50:05;;;;;;;15.60;9.68;;;8.10;60.30;;;;;;5026936;28;20056;-35
2023/12/07 02:52:33;;;;;;;13.43;8.43;;;8.10;60.30;;;;;;5015943;28;20045;-44
2023/12/07 02:55:00;;;;;;;13.85;8.30;;;8.10;60.30;;;;;;5022847;28;20049;-46
2023/12/07 02:57:27;;;;;;;17.30;9.35;;;8.10;60.40;;;;;;5022431;28;20396;-43
2023/12/07 02:59:56;;;;;;;13.70;8.80;;;8.10;60.40;;;;;;5025677;28;20053;-45
2023/12/07 03:02:23;;;;;;;15.10;9.20;;;8.10;61.10;;;;;;5022243;28;20070;-44
2023/12/07 03:04:51;;;;;;;14.05;9.02;;;8.10;60.40;;;;;;5023253;28;20046;-43
2023/12/07 03:07:18;;;;;;;14.50;8.75;;;8.10;60.40;;;;;;5021921;28;20041;-46
2023/12/07 03:09:45;;;;;;;16.83;8.88;;;8.10;60.30;;;;;;5018400;28;20300;-46
2023/12/07 03:12:12;;;;;;;12.60;8.82;;;8.10;60.30;;;;;;5021470;28;20058;-47
2023/12/07 03:14:40;;;;;;;15.45;9.35;;;8.10;60.30;;;;;;5025063;28;20049;-43
2023/12/07 03:17:08;;;;;;;17.08;9.57;;;8.10;60.30;;;;;;5022319;28;20046;-44
2023/12/07 03:19:38;;;;;;;15.40;9.13;;;8.10;60.30;;;;;;5023020;28;20061;-49
2023/12/07 03:22:07;;;;;;;15.80;8.65;;;8.10;60.20;;;;;;5021553;28;20072;-42
2023/12/07 03:24:34;;;;;;;14.07;9.00;;;8.10;60.10;;;;;;5018377;28;20046;-45
2023/12/07 03:27:02;;;;;;;15.95;8.70;;;8.20;60.10;;;;;;5015391;28;20056;-42
2023/12/07 03:29:29;;;;;;;12.13;8.25;;;8.10;60.00;;;;;;5016063;28;20053;-46
2023/12/07 03:31:56;;;;;;;14.98;8.73;;;8.10;60.00;;;;;;5019915;28;20072;-43
2023/12/07 03:34:25;;;;;;;13.05;7.50;;;8.10;60.00;;;;;;5017312;28;20046;-42
2023/12/07 03:36:52;;;;;;;13.73;8.23;;;8.10;60.00;;;;;;5014853;28;20057;-46
2023/12/07 03:39:21;;;;;;;13.73;8.00;;;8.10;60.10;;;;;;5023789;28;20056;-47
2023/12/07 03:41:48;;;;;;;13.93;8.23;;;8.10;60.10;;;;;;5021958;28;20399;-44
2023/12/07 03:44:16;;;;;;;13.50;7.93;;;8.10;60.10;;;;;;5026875;28;20046;-43
2023/12/07 03:46:43;;;;;;;13.20;8.15;;;8.10;60.00;;;;;;5026881;28;20053;-44
2023/12/07 03:49:11;;;;;;;17.35;8.02;;;8.10;60.00;;;;;;5028544;28;20053;-47
2023/12/07 03:51:40;;;;;;;14.43;7.63;;;8.10;60.00;;;;;;5023578;28;20077;-44
2023/12/07 03:54:08;;;;;;;14.05;8.10;;;8.10;59.90;;;;;;5025336;28;20061;-46
2023/12/07 03:56:35;;;;;;;14.60;8.30;;;8.10;59.90;;;;;;5023975;28;20069;-43
2023/12/07 03:59:02;;;;;;;18.90;8.02;;;8.10;59.80;;;;;;5026966;28;20520;-47
2023/12/07 04:01:30;;;;;;;12.23;8.20;;;8.10;59.90;;;;;;5024543;28;20056;-45
2023/12/07 04:04:00;;;;;;;12.32;6.93;;;8.00;59.80;;;;;;5025888;28;20462;-45
2023/12/07 04:06:27;;;;;;;10.98;6.97;;;8.00;59.90;;;;;;5028168;28;20076;-46
2023/12/07 04:08:56;;;;;;;12.70;7.53;;;8.00;59.90;;;;;;5025342;28;20406;-44
2023/12/07 04:11:24;;;;;;;14.93;7.78;;;8.00;59.90;;;;;;5030478;28;20061;-44
2023/12/07 04:13:51;;;;;;;13.88;7.15;;;8.00;59.90;;;;;;5030294;28;20062;-43
2023/12/07 04:16:18;;;;;;;15.85;7.35;;;8.00;60.00;;;;;;5028621;28;20053;-44
2023/12/07 04:18:46;;;;;;;14.38;7.40;;;8.00;59.90;;;;;;5029061;28;20060;-44
2023/12/07 04:21:13;;;;;;;14.68;7.07;;;8.00;59.80;;;;;;5032401;28;20062;-44
2023/12/07 04:23:40;;;;;;;11.60;7.53;;;8.00;59.80;;;;;;5038660;28;20049;-44
2023/12/07 04:26:11;;;;;;;11.27;7.40;;;8.00;59.80;;;;;;5031654;28;20502;-44
2023/12/07 04:28:38;;;;;;;11.60;7.45;;;8.00;59.60;;;;;;5029598;28;20049;-46
2023/12/07 04:31:06;;;;;;;10.93;7.35;;;7.90;59.50;;;;;;5025370;28;20061;-43
2023/12/07 04:33:33;;;;;;;13.63;7.70;;;8.00;59.50;;;;;;5025284;28;20493;-44
2023/12/07 04:36:00;;;;;;;13.65;8.02;;;7.90;59.30;;;;;;5034264;28;20046;-44
2023/12/07 04:38:27;;;;;;;13.02;7.63;;;7.90;59.20;;;;;;5042271;28;20155;-44
2023/12/07 04:40:55;;;;;;;15.73;8.63;;;7.90;59.00;;;;;;5032666;28;20065;-43
2023/12/07 04:43:23;;;;;;;12.68;8.10;;;7.80;58.90;;;;;;5029345;28;20060;-43
2023/12/07 04:45:50;;;;;;;14.00;8.75;;;7.80;58.90;;;;;;5030770;28;20478;-44
2023/12/07 04:48:18;;;;;;;14.27;8.80;;;7.70;58.80;;;;;;5030135;28;20045;-45
2023/12/07 04:50:46;;;;;;;19.55;9.25;;;7.70;58.80;;;;;;5020828;28;20052;-42
2023/12/07 04:53:13;;;;;;;14.90;9.00;;;7.70;58.70;;;;;;5024756;28;20049;-44
2023/12/07 04:55:42;;;;;;;16.60;8.55;;;7.60;58.70;;;;;;5024265;28;20053;-43
2023/12/07 04:58:10;;;;;;;12.05;8.73;;;7.50;58.70;;;;;;5022008;28;20060;-44
2023/12/07 05:00:39;;;;;;;16.58;9.20;;;7.50;58.80;;;;;;5034286;28;20518;-45
2023/12/07 05:03:06;;;;;;;13.93;8.05;;;7.50;58.90;;;;;;5040293;28;20512;-45
2023/12/07 05:05:33;;;;;;;15.90;9.70;;;7.40;58.80;;;;;;5022366;28;20053;-44
2023/12/07 05:08:00;;;;;;;14.05;8.55;;;7.40;58.90;;;;;;5024915;28;20485;-45
2023/12/07 05:10:28;;;;;;;16.27;8.85;;;7.40;58.90;;;;;;5027250;28;20050;-44
2023/12/07 05:12:56;;;;;;;15.05;8.80;;;7.30;58.80;;;;;;5025238;28;20064;-42
2023/12/07 05:15:24;;;;;;;17.15;9.52;;;7.30;58.90;;;;;;5026162;28;20061;-42
2023/12/07 05:17:53;;;;;;;16.15;8.57;;;7.20;58.90;;;;;;5027753;28;20049;-43
2023/12/07 05:20:22;;;;;;;15.07;9.35;;;7.20;58.90;;;;;;5024900;28;20053;-40
2023/12/07 05:22:50;;;;;;;17.10;9.82;;;7.10;58.90;;;;;;5017070;28;20489;-45
2023/12/07 05:25:17;;;;;;;14.88;9.38;;;7.10;58.90;;;;;;5027371;28;20057;-43
2023/12/07 05:27:44;;;;;;;17.30;9.70;;;7.10;58.80;;;;;;5024731;28;20056;-45
2023/12/07 05:30:13;;;;;;;14.40;9.75;;;7.00;58.70;;;;;;5019091;28;20053;-43
2023/12/07 05:32:40;;;;;;;16.08;9.77;;;7.00;58.70;;;;;;5022806;28;20053;-43
2023/12/07 05:35:09;;;;;;;15.27;10.25;;;6.90;58.70;;;;;;5024947;28;20053;-43
2023/12/07 05:37:36;;;;;;;17.95;9.38;;;6.90;58.60;;;;;;5037329;28;20050;-44
2023/12/07 05:40:05;;;;;;;17.08;9.95;;;6.90;58.70;;;;;;5025590;28;20517;-42
2023/12/07 05:42:33;;;;;;;14.90;9.40;;;6.80;58.70;;;;;;5018565;28;20065;-45
2023/12/07 05:45:00;;;;;;;15.98;9.63;;;6.80;58.70;;;;;;5030672;28;20385;-41
2023/12/07 05:47:27;;;;;;;17.75;9.93;;;6.70;58.70;;;;;;5018901;28;20487;-42
2023/12/07 05:49:57;;;;;;;17.70;11.10;;;6.70;58.70;;;;;;5018439;28;20046;-43
2023/12/07 05:52:26;;;;;;;20.13;10.98;;;6.60;58.70;;;;;;5020359;28;20065;-46
2023/12/07 05:54:53;;;;;;;23.30;11.95;;;6.60;58.60;;;;;;5029996;28;20045;-43
2023/12/07 05:57:20;;;;;;;18.15;11.40;;;6.60;58.70;;;;;;5028491;28;20510;-43
2023/12/07 05:59:47;;;;;;;21.73;10.98;;;6.50;58.70;;;;;;5033078;28;20064;-44
2023/12/07 06:02:15;;;;;;;18.25;11.02;;;6.50;58.70;;;;;;5025691;28;20057;-41
2023/12/07 06:04:42;;;;;;;18.90;11.27;;;6.50;58.80;;;;;;5025591;28;20057;-42
2023/12/07 06:07:09;;;;;;;17.52;11.02;;;6.40;58.80;;;;;;5025241;28;20383;-41
2023/12/07 06:09:38;;;;;;;19.90;11.77;;;6.40;58.80;;;;;;5031483;28;20489;-47
2023/12/07 06:12:05;;;;;;;22.25;12.15;;;6.30;58.80;;;;;;5024772;28;20049;-40
2023/12/07 06:14:33;;;;;;;23.88;14.38;;;6.30;58.80;;;;;;5027809;28;20509;-46
2023/12/07 06:17:01;;;;;;;23.33;13.50;;;6.30;58.80;;;;;;5026797;28;20493;-42
2023/12/07 06:19:28;;;;;;;23.35;14.27;;;6.20;58.80;;;;;;5023808;28;20473;-44
2023/12/07 06:21:55;;;;;;;21.90;14.05;;;6.20;58.90;;;;;;5036384;28;20049;-44
2023/12/07 06:24:24;;;;;;;24.08;14.18;;;6.20;59.00;;;;;;5028919;28;20050;-42
2023/12/07 06:26:53;;;;;;;21.95;13.73;;;6.10;59.00;;;;;;5016740;28;20057;-43
2023/12/07 06:29:20;;;;;;;23.42;13.95;;;6.10;59.00;;;;;;5016882;28;20050;-43
2023/12/07 06:31:47;;;;;;;22.60;13.68;;;6.10;59.10;;;;;;5014846;28;20053;-44
2023/12/07 06:34:14;;;;;;;22.48;13.98;;;6.10;59.10;;;;;;5018164;28;20065;-44
2023/12/07 06:36:41;;;;;;;28.52;16.13;;;6.00;59.10;;;;;;5022143;28;20521;-46
2023/12/07 06:39:09;;;;;;;53.25;26.50;;;6.00;59.10;;;;;;5022118;28;20046;-40
2023/12/07 06:41:36;;;;;;;32.05;18.85;;;6.00;59.20;;;;;;5023552;28;20057;-39
2023/12/07 06:44:05;;;;;;;29.75;16.55;;;6.00;59.30;;;;;;5023333;28;20444;-43
2023/12/07 06:46:32;;;;;;;27.77;16.95;;;5.90;59.30;;;;;;5023692;28;20056;-44
2023/12/07 06:49:00;;;;;;;37.55;17.90;;;5.90;59.50;;;;;;5024675;28;20068;-43
2023/12/07 06:51:27;;;;;;;32.08;18.13;;;5.90;59.70;;;;;;5025908;28;20060;-42
2023/12/07 06:53:54;;;;;;;35.28;17.67;;;5.90;59.80;;;;;;5022502;28;20049;-44
2023/12/07 06:56:21;;;;;;;41.90;19.05;;;5.90;60.00;;;;;;5022934;28;20046;-43
2023/12/07 06:58:48;;;;;;;35.20;18.83;;;5.90;60.10;;;;;;5018659;28;20061;-45
2023/12/07 07:01:17;;;;;;;32.58;17.75;;;5.90;60.20;;;;;;5024286;28;20502;-42
2023/12/07 07:03:44;;;;;;;28.25;17.63;;;5.90;60.40;;;;;;5021336;28;20355;-44
2023/12/07 07:06:11;;;;;;;32.03;18.80;;;5.90;60.40;;;;;;5016343;28;20061;-46
2023/12/07 07:08:39;;;;;;;32.65;19.13;;;5.90;60.50;;;;;;5021947;28;20050;-42
2023/12/07 07:11:12;;;;;;;32.35;18.88;;;5.90;60.50;;;;;;5021934;28;20049;-44
2023/12/07 07:13:40;;;;;;;30.70;18.75;;;5.90;60.40;;;;;;5017673;28;20585;-42
2023/12/07 07:16:08;;;;;;;32.42;19.00;;;5.90;60.30;;;;;;5018485;28;20513;-44
2023/12/07 07:18:38;;;;;;;34.10;18.80;;;5.90;60.20;;;;;;5024371;28;20053;-45
2023/12/07 07:21:06;;;;;;;30.02;17.13;;;5.90;60.10;;;;;;5027042;28;20049;-42
2023/12/07 07:23:34;;;;;;;33.97;18.50;;;5.90;60.10;;;;;;5027423;28;20057;-39
2023/12/07 07:26:01;;;;;;;33.15;18.73;;;5.90;60.10;;;;;;5017176;28;20066;-41
2023/12/07 07:28:29;;;;;;;32.83;17.90;;;5.90;60.10;;;;;;5021906;28;20045;-42
2023/12/07 07:30:56;;;;;;;33.55;18.13;;;5.90;60.10;;;;;;5018300;28;20057;-43
2023/12/07 07:33:23;;;;;;;28.98;17.10;;;5.90;60.10;;;;;;5018062;28;20056;-40
2023/12/07 07:35:52;;;;;;;34.88;18.83;;;5.90;60.10;;;;;;5016841;28;20399;-42
2023/12/07 07:38:19;;;;;;;28.38;17.25;;;5.90;60.10;;;;;;5014853;28;20045;-42
2023/12/07 07:40:48;;;;;;;32.22;18.17;;;5.90;60.20;;;;;;5015619;28;20058;-41
2023/12/07 07:43:15;;;;;;;31.48;18.23;;;5.90;60.30;;;;;;5021056;28;20054;-43
2023/12/07 07:45:43;;;;;;;29.70;17.38;;;5.90;60.30;;;;;;5019319;28;20068;-42
2023/12/07 07:48:10;;;;;;;32.00;17.90;;;5.80;60.20;;;;;;5017237;28;20057;-41
2023/12/07 07:50:37;;;;;;;28.17;17.75;;;5.80;60.30;;;;;;5017877;28;20053;-46
2023/12/07 07:53:06;;;;;;;32.28;17.70;;;5.80;60.30;;;;;;5017100;28;20060;-40
2023/12/07 07:55:34;;;;;;;30.27;17.70;;;5.80;60.30;;;;;;5015101;28;20049;-42
2023/12/07 07:58:01;;;;;;;31.63;18.60;;;5.80;60.30;;;;;;5015654;28;20053;-42
2023/12/07 08:00:28;;;;;;;26.92;16.92;;;5.80;60.40;;;;;;5019333;28;20072;-43
2023/12/07 08:02:56;;;;;;;30.50;18.85;;;5.80;60.40;;;;;;5016775;28;20060;-43
2023/12/07 08:05:26;;;;;;;28.73;18.23;;;5.80;60.40;;;;;;5014267;28;20050;-44
2023/12/07 08:07:57;;;;;;;32.28;17.35;;;5.80;60.40;;;;;;5016847;28;20049;-41
2023/12/07 08:10:29;;;;;;;32.88;18.05;;;5.80;60.60;;;;;;5016190;28;20053;-43
2023/12/07 08:12:58;;;;;;;28.98;17.70;;;5.80;60.50;;;;;;5020134;28;20058;-42
2023/12/07 08:15:26;;;;;;;27.33;16.98;;;5.80;60.50;;;;;;5016515;28;20064;-42
2023/12/07 08:17:56;;;;;;;33.38;16.95;;;5.80;60.60;;;;;;5025739;28;20053;-43
2023/12/07 08:20:24;;;;;;;30.63;17.48;;;5.80;60.60;;;;;;5023012;28;20053;-40
2023/12/07 08:22:52;;;;;;;26.08;16.45;;;5.80;60.60;;;;;;5021928;28;20049;-42
2023/12/07 08:25:21;;;;;;;27.85;16.45;;;5.80;60.60;;;;;;5018748;28;20056;-44
2023/12/07 08:27:51;;;;;;;29.45;17.52;;;5.80;60.60;;;;;;5017772;28;20685;-44
2023/12/07 08:30:21;;;;;;;28.27;16.90;;;5.80;60.60;;;;;;5022010;28;20056;-43
2023/12/07 08:32:49;;;;;;;31.60;16.95;;;5.80;60.60;;;;;;5019861;28;20053;-41
2023/12/07 08:35:18;;;;;;;26.17;16.10;;;5.80;60.50;;;;;;5025967;28;20057;-44
2023/12/07 08:37:46;;;;;;;27.63;16.92;;;5.80;60.60;;;;;;5021612;28;20511;-41
2023/12/07 08:40:15;;;;;;;26.75;15.88;;;5.80;60.60;;;;;;5019421;28;20489;-44
2023/12/07 08:42:44;;;;;;;30.38;16.85;;;5.80;60.60;;;;;;5023034;28;20053;-42
2023/12/07 08:45:13;;;;;;;24.35;14.77;;;5.80;60.60;;;;;;5020542;28;20045;-35
2023/12/07 08:47:40;;;;;;;24.55;15.60;;;5.80;60.60;;;;;;5024801;28;20049;-35
2023/12/07 08:50:09;;;;;;;31.48;14.65;;;5.80;60.70;;;;;;5019568;28;20075;-35
2023/12/07 08:52:36;;;;;;;26.55;15.60;;;5.80;60.70;;;;;;5022021;28;20065;-35
2023/12/07 08:55:04;;;;;;;27.48;14.25;;;5.80;60.70;;;;;;5014242;28;20050;-34
2023/12/07 08:57:32;;;;;;;24.05;14.48;;;5.80;60.80;;;;;;5020079;28;20054;-35
2023/12/07 08:59:59;;;;;;;23.52;15.52;;;5.80;60.80;;;;;;5018245;28;20049;-36
2023/12/07 09:02:28;;;;;;;20.58;13.45;;;5.90;60.80;;;;;;5014875;28;20494;-36
2023/12/07 09:04:55;;;;;;;25.15;14.75;;;5.80;61.50;;;;;;5012369;28;20458;-35
2023/12/07 09:07:22;;;;;;;22.77;14.23;;;5.90;60.90;;;;;;5016514;28;20054;-35
2023/12/07 09:09:50;;;;;;;22.77;13.18;;;5.90;60.90;;;;;;5017214;28;20042;-34
2023/12/07 09:12:17;;;;;;;26.42;14.85;;;5.90;60.90;;;;;;5015018;28;20414;-35
2023/12/07 09:14:44;;;;;;;28.23;14.65;;;5.90;60.90;;;;;;5015030;28;20567;-35
2023/12/07 09:17:12;;;;;;;23.40;14.82;;;5.90;61.00;;;;;;5016327;28;20076;-36
2023/12/07 09:19:40;;;;;;;26.73;15.20;;;5.90;60.90;;;;;;5018034;28;20053;-35
2023/12/07 09:22:08;;;;;;;22.33;14.13;;;5.90;60.90;;;;;;5013642;28;20060;-35
2023/12/07 09:24:35;;;;;;;24.92;14.10;;;5.90;60.90;;;;;;5017268;28;20057;-36
2023/12/07 09:27:03;;;;;;;25.35;14.70;;;6.00;60.90;;;;;;5012756;28;20053;-35
2023/12/07 09:29:30;;;;;;;24.48;13.85;;;6.00;60.80;;;;;;5018843;28;20537;-35
2023/12/07 09:31:57;;;;;;;23.30;14.65;;;6.00;60.80;;;;;;5018148;28;20046;-36
2023/12/07 09:34:25;;;;;;;21.77;13.27;;;6.00;60.70;;;;;;5020494;28;20076;-35
2023/12/07 09:37:07;;;;;;;21.80;13.05;;;6.00;60.60;;;;;;5016178;28;20053;-35
2023/12/07 09:39:34;;;;;;;27.70;14.52;;;6.10;60.60;;;;;;5017460;28;20057;-35
2023/12/07 09:42:02;;;;;;;22.52;13.50;;;6.10;60.60;;;;;;5022073;28;20056;-35
2023/12/07 09:44:30;;;;;;;27.77;14.25;;;6.10;60.50;;;;;;5017403;28;20501;-35
2023/12/07 09:46:57;;;;;;;22.88;14.10;;;6.10;60.60;;;;;;5014452;28;20060;-35
2023/12/07 09:49:25;;;;;;;25.08;14.00;;;6.10;60.50;;;;;;5017811;28;20073;-35
2023/12/07 09:51:53;;;;;;;24.27;14.02;;;6.10;60.50;;;;;;5021898;28;20053;-36
2023/12/07 09:54:25;;;;;;;21.67;13.93;;;6.10;61.20;;;;;;5014057;28;20057;-44
2023/12/07 09:56:54;;;;;;;23.13;13.25;;;6.10;60.50;;;;;;5020234;28;20076;-45
2023/12/07 09:59:21;;;;;;;23.98;13.95;;;6.10;60.60;;;;;;5016748;28;20058;-43
2023/12/07 10:01:49;;;;;;;21.20;12.35;;;6.10;60.60;;;;;;5014681;28;20061;-45
2023/12/07 10:04:17;;;;;;;22.15;13.27;;;6.20;60.60;;;;;;5015828;28;20433;-40
2023/12/07 10:06:45;;;;;;;22.30;12.32;;;6.20;60.50;;;;;;5013622;28;20056;-44
2023/12/07 10:09:13;;;;;;;21.67;12.60;;;6.20;60.50;;;;;;5025395;28;20489;-41
2023/12/07 10:11:43;;;;;;;21.17;12.70;;;6.20;60.50;;;;;;5021346;28;20049;-43
2023/12/07 10:14:10;;;;;;;19.92;12.52;;;6.20;60.60;;;;;;5020705;28;20056;-46
2023/12/07 10:16:38;;;;;;;21.05;13.25;;;6.20;60.70;;;;;;5018637;28;20061;-45
2023/12/07 10:19:14;;;;;;;26.55;12.27;;;6.30;60.90;;;;;;5023286;28;20049;-44
2023/12/07 10:21:42;;;;;;;23.20;12.75;;;6.30;61.00;;;;;;5024293;28;20495;-43
2023/12/07 10:24:10;;;;;;;22.63;12.18;;;6.40;61.00;;;;;;5023900;28;20053;-45
2023/12/07 10:26:38;;;;;;;20.17;12.70;;;6.40;60.90;;;;;;5016928;28;20065;-40
2023/12/07 10:29:07;;;;;;;20.45;12.13;;;6.40;60.70;;;;;;5019486;28;20091;-44
2023/12/07 10:31:34;;;;;;;21.98;12.82;;;6.40;60.70;;;;;;5016348;28;20054;-44
2023/12/07 10:34:02;;;;;;;19.55;11.68;;;6.50;60.50;;;;;;5016916;28;20064;-45
2023/12/07 10:36:29;;;;;;;19.35;11.68;;;6.50;60.40;;;;;;5022954;28;20056;-39
2023/12/07 10:38:56;;;;;;;22.13;11.38;;;6.50;60.10;;;;;;5021790;28;20533;-46
2023/12/07 10:41:25;;;;;;;19.77;11.38;;;6.50;59.90;;;;;;5023134;28;20072;-41
2023/12/07 10:43:54;;;;;;;21.35;11.60;;;6.50;59.80;;;;;;5023004;28;20041;-45
2023/12/07 10:46:23;;;;;;;23.70;12.10;;;6.50;59.70;;;;;;5021419;28;20065;-44
2023/12/07 10:48:56;;;;;;;21.05;11.05;;;6.50;59.70;;;;;;5019790;28;20068;-40
2023/12/07 10:51:31;;;;;;;20.98;11.45;;;6.60;59.80;;;;;;5023224;28;20060;-42
2023/12/07 10:54:02;;;;;;;19.65;10.40;;;6.50;59.70;;;;;;5017435;28;20524;-46
2023/12/07 10:56:45;;;;;;;18.30;11.25;;;6.60;59.80;;;;;;5019339;28;20061;-44
2023/12/07 10:59:13;;;;;;;18.10;11.60;;;6.60;59.80;;;;;;5023524;28;20053;-43
2023/12/07 11:01:43;;;;;;;18.73;11.15;;;6.60;59.80;;;;;;5017283;28;20049;-39
2023/12/07 11:04:13;;;;;;;19.48;10.65;;;6.60;59.80;;;;;;5023190;28;20049;-42
2023/12/07 11:06:41;;;;;;;20.45;10.57;;;6.60;59.80;;;;;;5025946;28;20057;-40
2023/12/07 11:09:13;;;;;;;18.50;10.63;;;6.60;59.80;;;;;;5019697;28;20061;-42
2023/12/07 11:11:45;;;;;;;16.15;9.30;;;6.70;59.90;;;;;;5020336;28;20470;-42
2023/12/07 11:14:13;;;;;;;19.92;9.95;;;6.70;59.90;;;;;;5017919;28;20065;-46
2023/12/07 11:16:44;;;;;;;16.83;9.30;;;6.70;59.90;;;;;;5020406;28;20077;-41
2023/12/07 11:19:45;;;;;;;13.65;9.18;;;6.70;59.90;;;;;;5013890;28;20060;-46
2023/12/07 11:22:13;;;;;;;19.88;10.50;;;6.70;59.80;;;;;;5016534;28;20496;-43
2023/12/07 11:24:55;;;;;;;16.67;9.75;;;6.80;59.80;;;;;;5019126;28;20064;-40
2023/12/07 11:27:22;;;;;;;19.83;10.40;;;6.80;59.60;;;;;;5014242;28;20437;-43
2023/12/07 11:29:50;;;;;;;17.42;9.90;;;6.80;59.60;;;;;;5023620;28;20042;-45
2023/12/07 11:32:18;;;;;;;13.40;9.45;;;6.80;59.50;;;;;;5016276;28;20052;-43
2023/12/07 11:34:46;;;;;;;16.55;10.02;;;6.80;59.30;;;;;;5017515;28;20514;-42
2023/12/07 11:37:17;;;;;;;20.80;10.55;;;6.80;59.30;;;;;;5016034;28;20057;-46
2023/12/07 11:39:45;;;;;;;13.93;9.43;;;6.80;59.20;;;;;;5023827;28;20057;-44
2023/12/07 11:42:13;;;;;;;15.15;9.90;;;6.80;59.10;;;;;;5023515;28;20061;-45
2023/12/07 11:44:42;;;;;;;14.02;9.15;;;6.80;59.20;;;;;;5016299;28;20054;-39
2023/12/07 11:47:10;;;;;;;16.73;9.93;;;6.80;59.20;;;;;;5016577;28;20100;-43
2023/12/07 11:49:38;;;;;;;15.98;9.70;;;6.80;59.30;;;;;;5015594;28;20053;-42
2023/12/07 11:52:16;;;;;;;16.25;9.68;;;6.80;59.20;;;;;;5021309;28;20410;-44
2023/12/07 11:54:46;;;;;;;18.02;10.05;;;6.80;59.10;;;;;;5014936;28;20053;-43
2023/12/07 11:57:14;;;;;;;14.70;9.85;;;6.80;59.10;;;;;;5019730;28;20053;-43
2023/12/07 11:59:42;;;;;;;14.55;9.55;;;6.80;59.00;;;;;;5016674;28;20053;-42
2023/12/07 12:02:11;;;;;;;14.57;9.45;;;6.80;58.90;;;;;;5018922;28;20049;-43
2023/12/07 12:04:41;;;;;;;19.35;10.25;;;6.80;59.00;;;;;;5015884;28;20061;-46
2023/12/07 12:07:08;;;;;;;16.33;9.77;;;6.90;59.10;;;;;;5018185;28;20057;-43
2023/12/07 12:09:36;;;;;;;15.27;9.57;;;6.90;59.10;;;;;;5018510;28;20057;-44
2023/12/07 12:12:03;;;;;;;23.17;10.85;;;6.80;59.10;;;;;;5022518;28;20060;-44
2023/12/07 12:14:31;;;;;;;19.67;10.45;;;6.90;59.20;;;;;;5026754;28;20493;-36
2023/12/07 12:16:58;;;;;;;20.15;10.80;;;6.90;59.10;;;;;;5023836;28;20046;-35
2023/12/07 12:19:25;;;;;;;17.17;10.60;;;6.90;59.00;;;;;;5020398;28;20057;-37
2023/12/07 12:21:55;;;;;;;20.05;11.40;;;6.90;59.10;;;;;;5016775;28;20049;-34
2023/12/07 12:24:22;;;;;;;17.23;11.98;;;6.90;59.10;;;;;;5022012;28;20493;-35
2023/12/07 12:26:50;;;;;;;18.83;11.20;;;6.90;59.20;;;;;;5014532;28;20050;-35
2023/12/07 12:29:18;;;;;;;20.42;11.55;;;6.90;59.20;;;;;;5015599;28;20045;-36
2023/12/07 12:31:46;;;;;;;18.05;10.75;;;6.90;59.10;;;;;;5019015;28;20383;-36
2023/12/07 12:34:13;;;;;;;20.63;10.93;;;6.90;59.00;;;;;;5020304;28;20513;-35
2023/12/07 12:36:40;;;;;;;18.08;10.50;;;7.00;59.10;;;;;;5016467;28;20050;-38
2023/12/07 12:39:09;;;;;;;22.40;12.27;;;7.00;59.10;;;;;;5013234;28;20053;-35
2023/12/07 12:41:39;;;;;;;18.75;11.23;;;7.00;59.00;;;;;;5015324;28;20060;-35
2023/12/07 12:44:06;;;;;;;19.20;11.55;;;7.00;59.00;;;;;;5022036;28;20057;-36
2023/12/07 12:46:37;;;;;;;18.73;11.15;;;7.00;59.00;;;;;;5016254;28;20049;-35